Time,TemperatureF,DewpointF,PressureIn,WindDirection,WindDirectionDegrees,WindSpeedMPH,WindSpeedGustMPH,Humidity,HourlyPrecipIn,Conditions,Clouds,dailyrainin,SoftwareType,DateUTC
2013-09-10 00:04:00,71.1,69.6,30.02,SSW,198,0.0,0.0,95,0.00,,,0.00,meteobridge,2013-09-10 04:04:00,
2013-09-10 00:09:00,71.1,69.6,30.02,SSW,198,0.0,0.0,95,0.00,,,0.00,meteobridge,2013-09-10 04:09:00,
2013-09-10 00:14:00,70.9,69.4,30.02,SSW,198,0.0,0.0,95,0.00,,,0.00,meteobridge,2013-09-10 04:14:00,
2013-09-10 00:20:00,70.9,69.4,30.02,SSW,198,0.0,0.0,95,0.00,,,0.00,meteobridge,2013-09-10 04:20:00,
2013-09-10 00:25:00,70.9,69.4,30.02,SSW,198,0.0,0.0,95,0.00,,,0.00,meteobridge,2013-09-10 04:25:00,
2013-09-10 00:30:00,70.5,69.1,30.02,SSW,198,0.0,0.0,95,0.00,,,0.00,meteobridge,2013-09-10 04:30:00,
2013-09-10 00:35:00,70.5,69.1,30.02,SSW,198,0.0,0.0,95,0.00,,,0.00,meteobridge,2013-09-10 04:35:00,
2013-09-10 00:40:00,70.5,69.1,30.02,SSW,198,0.0,0.0,95,0.00,,,0.00,meteobridge,2013-09-10 04:40:00,
2013-09-10 00:45:00,70.5,69.3,30.02,SSW,198,0.0,0.0,96,0.00,,,0.00,meteobridge,2013-09-10 04:45:00,
2013-09-10 00:51:00,70.3,69.1,30.02,SSW,198,0.0,0.0,96,0.00,,,0.00,meteobridge,2013-09-10 04:51:00,
2013-09-10 00:56:00,70.5,69.3,30.02,SSW,198,0.0,0.0,96,0.00,,,0.00,meteobridge,2013-09-10 04:56:00,
2013-09-10 01:01:00,70.5,69.3,30.02,SSW,198,0.0,0.0,96,0.00,,,0.00,meteobridge,2013-09-10 05:01:00,
2013-09-10 01:06:00,70.3,69.1,30.02,SSW,198,0.0,0.0,96,0.00,,,0.00,meteobridge,2013-09-10 05:06:00,
2013-09-10 01:11:00,70.3,69.1,30.02,SSW,198,0.0,0.0,96,0.00,,,0.00,meteobridge,2013-09-10 05:11:00,
2013-09-10 01:16:00,70.3,69.1,30.02,SSW,198,0.0,0.0,96,0.00,,,0.00,meteobridge,2013-09-10 05:16:00,
2013-09-10 01:22:00,70.3,69.1,30.02,SSW,198,0.0,0.0,96,0.00,,,0.00,meteobridge,2013-09-10 05:22:00,
2013-09-10 01:27:00,70.3,69.1,30.02,SSW,198,0.0,0.0,96,0.00,,,0.00,meteobridge,2013-09-10 05:27:00,
2013-09-10 01:32:00,70.3,69.1,30.03,SSW,198,0.0,0.0,96,0.00,,,0.00,meteobridge,2013-09-10 05:32:00,
2013-09-10 01:37:00,70.3,69.1,30.03,SSW,198,0.0,0.0,96,0.00,,,0.00,meteobridge,2013-09-10 05:37:00,
2013-09-10 01:42:00,70.3,69.1,30.03,SSW,198,0.0,0.0,96,0.00,,,0.00,meteobridge,2013-09-10 05:42:00,
2013-09-10 01:47:00,70.2,68.9,30.03,SSW,198,0.0,0.0,96,0.00,,,0.00,meteobridge,2013-09-10 05:47:00,
2013-09-10 01:53:00,70.2,68.9,30.03,SSW,198,0.0,0.0,96,0.00,,,0.00,meteobridge,2013-09-10 05:53:00,
2013-09-10 01:58:00,70.2,68.9,30.03,SSW,198,0.0,0.0,96,0.00,,,0.00,meteobridge,2013-09-10 05:58:00,
2013-09-10 02:03:00,70.0,68.7,30.03,SSW,198,0.0,0.0,96,0.00,,,0.00,meteobridge,2013-09-10 06:03:00,
2013-09-10 02:08:00,69.8,68.5,30.03,SSW,198,0.0,0.0,96,0.00,,,0.00,meteobridge,2013-09-10 06:08:00,
2013-09-10 02:13:00,69.8,68.5,30.03,SSW,198,0.0,0.0,96,0.00,,,0.00,meteobridge,2013-09-10 06:13:00,
2013-09-10 02:18:00,69.8,68.5,30.03,SSW,198,0.0,0.0,96,0.00,,,0.00,meteobridge,2013-09-10 06:18:00,
2013-09-10 02:24:00,69.6,68.4,30.03,SSW,198,0.0,0.0,96,0.00,,,0.00,meteobridge,2013-09-10 06:24:00,
2013-09-10 02:29:00,69.8,68.9,30.03,SSW,198,0.0,0.0,97,0.00,,,0.00,meteobridge,2013-09-10 06:29:00,
2013-09-10 02:34:00,69.6,68.7,30.03,SSW,198,0.0,0.0,97,0.00,,,0.00,meteobridge,2013-09-10 06:34:00,
2013-09-10 02:39:00,69.8,68.9,30.03,SSW,198,0.0,0.0,97,0.00,,,0.00,meteobridge,2013-09-10 06:39:00,
2013-09-10 02:44:00,69.8,68.9,30.03,SSW,198,0.0,0.0,97,0.00,,,0.00,meteobridge,2013-09-10 06:44:00,
2013-09-10 02:50:00,69.8,68.9,30.03,SSW,198,0.0,0.0,97,0.00,,,0.00,meteobridge,2013-09-10 06:50:00,
2013-09-10 02:55:00,70.0,69.1,30.03,SSW,198,0.0,0.0,97,0.00,,,0.00,meteobridge,2013-09-10 06:55:00,
2013-09-10 03:00:00,70.0,69.1,30.04,SSW,198,0.0,0.0,97,0.00,,,0.00,meteobridge,2013-09-10 07:00:00,
2013-09-10 03:05:00,70.2,69.3,30.04,SSW,198,0.0,0.0,97,0.00,,,0.00,meteobridge,2013-09-10 07:05:00,
2013-09-10 03:10:00,70.3,69.4,30.04,SSW,198,0.0,0.0,97,0.00,,,0.00,meteobridge,2013-09-10 07:10:00,
2013-09-10 03:15:00,70.3,69.4,30.04,SSW,198,0.0,0.0,97,0.00,,,0.00,meteobridge,2013-09-10 07:15:00,
2013-09-10 03:20:00,70.2,69.3,30.04,SSW,198,0.0,0.0,97,0.00,,,0.00,meteobridge,2013-09-10 07:20:00,
2013-09-10 03:26:00,70.2,69.3,30.04,SSW,198,0.0,0.0,97,0.00,,,0.00,meteobridge,2013-09-10 07:26:00,
2013-09-10 03:31:00,70.2,69.3,30.04,SSW,198,0.0,0.0,97,0.00,,,0.00,meteobridge,2013-09-10 07:31:00,
2013-09-10 03:36:00,70.3,69.4,30.04,SSW,198,0.0,0.0,97,0.00,,,0.00,meteobridge,2013-09-10 07:36:00,
2013-09-10 03:41:00,70.2,69.3,30.04,SSW,198,0.0,0.0,97,0.00,,,0.00,meteobridge,2013-09-10 07:41:00,
2013-09-10 03:46:00,70.3,69.4,30.05,SSW,198,0.0,0.0,97,0.00,,,0.00,meteobridge,2013-09-10 07:46:00,
2013-09-10 03:52:00,70.3,69.4,30.05,SSW,198,0.0,0.0,97,0.00,,,0.00,meteobridge,2013-09-10 07:52:00,
2013-09-10 03:57:00,70.3,69.4,30.05,SSW,198,0.0,0.0,97,0.00,,,0.00,meteobridge,2013-09-10 07:57:00,
2013-09-10 04:02:00,70.3,69.4,30.05,SSW,198,0.0,0.0,97,0.00,,,0.00,meteobridge,2013-09-10 08:02:00,
2013-09-10 04:07:00,70.3,69.4,30.05,SSW,198,0.0,0.0,97,0.00,,,0.00,meteobridge,2013-09-10 08:07:00,
2013-09-10 04:12:00,70.5,69.6,30.05,SSW,198,0.0,0.0,97,0.00,,,0.00,meteobridge,2013-09-10 08:12:00,
2013-09-10 04:17:00,70.5,69.6,30.05,SSW,198,0.0,0.0,97,0.00,,,0.00,meteobridge,2013-09-10 08:17:00,
2013-09-10 04:23:00,70.3,69.4,30.05,SSW,198,0.0,0.0,97,0.00,,,0.00,meteobridge,2013-09-10 08:23:00,
2013-09-10 04:28:00,70.3,69.4,30.05,SSW,198,0.0,0.0,97,0.00,,,0.00,meteobridge,2013-09-10 08:28:00,
2013-09-10 04:33:00,70.2,69.3,30.05,SSW,198,0.0,0.0,97,0.00,,,0.00,meteobridge,2013-09-10 08:33:00,
2013-09-10 04:38:00,70.2,69.3,30.05,SSW,198,0.0,0.0,97,0.00,,,0.00,meteobridge,2013-09-10 08:38:00,
2013-09-10 04:43:00,70.3,69.4,30.05,SSW,198,0.0,0.0,97,0.00,,,0.00,meteobridge,2013-09-10 08:43:00,
2013-09-10 04:49:00,70.3,69.4,30.05,SSW,198,0.0,0.0,97,0.00,,,0.00,meteobridge,2013-09-10 08:49:00,
2013-09-10 04:54:00,70.3,69.4,30.05,SSW,198,0.0,0.0,97,0.00,,,0.00,meteobridge,2013-09-10 08:54:00,
2013-09-10 04:59:00,70.3,69.4,30.05,SSW,198,0.0,0.0,97,0.00,,,0.00,meteobridge,2013-09-10 08:59:00,
2013-09-10 05:04:00,70.2,69.3,30.05,SSW,198,0.0,0.0,97,0.00,,,0.00,meteobridge,2013-09-10 09:04:00,
2013-09-10 05:09:00,70.2,69.3,30.05,SSW,198,0.0,0.0,97,0.00,,,0.00,meteobridge,2013-09-10 09:09:00,
2013-09-10 05:14:00,70.3,69.4,30.06,SSW,198,0.0,0.0,97,0.00,,,0.00,meteobridge,2013-09-10 09:14:00,
2013-09-10 05:19:00,70.3,69.4,30.06,SSW,198,0.0,0.0,97,0.00,,,0.00,meteobridge,2013-09-10 09:19:00,
2013-09-10 05:24:00,70.3,69.4,30.06,SSW,198,0.0,0.0,97,0.00,,,0.00,meteobridge,2013-09-10 09:24:00,
2013-09-10 05:29:00,70.2,69.3,30.07,SSW,198,0.0,0.0,97,0.00,,,0.00,meteobridge,2013-09-10 09:29:00,
2013-09-10 05:35:00,70.2,69.3,30.07,SSW,198,0.0,0.0,97,0.00,,,0.00,meteobridge,2013-09-10 09:35:00,
2013-09-10 05:40:00,70.3,69.4,30.07,SSW,198,0.0,0.0,97,0.00,,,0.00,meteobridge,2013-09-10 09:40:00,
2013-09-10 05:45:00,70.3,69.4,30.07,SSW,198,0.0,0.0,97,0.00,,,0.00,meteobridge,2013-09-10 09:45:00,
2013-09-10 05:50:00,70.2,69.3,30.07,SSW,198,0.0,0.0,97,0.00,,,0.00,meteobridge,2013-09-10 09:50:00,
2013-09-10 05:56:00,70.0,69.1,30.07,SSW,198,0.0,0.0,97,0.00,,,0.00,meteobridge,2013-09-10 09:56:00,
2013-09-10 06:01:00,70.0,69.1,30.07,SSW,198,0.0,0.0,97,0.00,,,0.00,meteobridge,2013-09-10 10:01:00,
2013-09-10 06:06:00,70.0,69.1,30.07,SSW,198,0.0,0.0,97,0.00,,,0.00,meteobridge,2013-09-10 10:06:00,
2013-09-10 06:11:00,70.2,69.3,30.07,SSW,198,0.0,0.0,97,0.00,,,0.00,meteobridge,2013-09-10 10:11:00,
2013-09-10 06:16:00,70.2,69.3,30.08,SSW,198,0.0,0.0,97,0.00,,,0.00,meteobridge,2013-09-10 10:16:00,
2013-09-10 06:22:00,70.2,69.3,30.08,SSW,198,0.0,0.0,97,0.00,,,0.00,meteobridge,2013-09-10 10:22:00,
2013-09-10 06:27:00,70.0,69.1,30.08,SSW,198,0.0,0.0,97,0.00,,,0.00,meteobridge,2013-09-10 10:27:00,
2013-09-10 06:32:00,70.0,69.1,30.09,SSW,198,0.0,0.0,97,0.00,,,0.00,meteobridge,2013-09-10 10:32:00,
2013-09-10 06:37:00,70.2,69.3,30.09,SSW,198,0.0,0.0,97,0.00,,,0.00,meteobridge,2013-09-10 10:37:00,
2013-09-10 06:42:00,70.2,69.3,30.09,SSW,198,0.0,0.0,97,0.00,,,0.00,meteobridge,2013-09-10 10:42:00,
2013-09-10 06:47:00,70.2,69.3,30.09,SSW,198,0.0,0.0,97,0.00,,,0.00,meteobridge,2013-09-10 10:47:00,
2013-09-10 06:53:00,70.0,69.1,30.09,SSW,198,0.0,0.0,97,0.00,,,0.00,meteobridge,2013-09-10 10:53:00,
2013-09-10 06:58:00,70.2,69.6,30.09,SSW,198,0.0,0.0,98,0.00,,,0.00,meteobridge,2013-09-10 10:58:00,
2013-09-10 07:03:00,70.0,69.1,30.10,SSW,198,0.0,0.0,97,0.00,,,0.00,meteobridge,2013-09-10 11:03:00,
2013-09-10 07:08:00,70.2,69.6,30.10,SSW,198,0.0,0.0,98,0.00,,,0.00,meteobridge,2013-09-10 11:08:00,
2013-09-10 07:13:00,70.2,69.6,30.10,SSW,198,0.0,0.0,98,0.00,,,0.00,meteobridge,2013-09-10 11:13:00,
2013-09-10 07:18:00,70.0,69.1,30.11,SSW,198,0.0,0.0,97,0.00,,,0.00,meteobridge,2013-09-10 11:18:00,
2013-09-10 07:24:00,69.8,68.9,30.11,SSW,198,0.0,0.0,97,0.00,,,0.00,meteobridge,2013-09-10 11:24:00,
2013-09-10 07:29:00,69.6,68.7,30.11,SSW,198,0.0,0.0,97,0.00,,,0.00,meteobridge,2013-09-10 11:29:00,
2013-09-10 07:34:00,69.8,69.3,30.11,SSW,198,0.0,2.0,98,0.00,,,0.00,meteobridge,2013-09-10 11:34:00,
2013-09-10 07:39:00,70.0,69.4,30.11,SSW,198,0.0,0.0,98,0.00,,,0.00,meteobridge,2013-09-10 11:39:00,
2013-09-10 07:44:00,70.2,69.6,30.11,SSW,198,0.0,0.0,98,0.00,,,0.00,meteobridge,2013-09-10 11:44:00,
2013-09-10 07:49:00,70.3,69.8,30.11,SSW,198,0.0,0.0,98,0.00,,,0.00,meteobridge,2013-09-10 11:49:00,
2013-09-10 07:55:00,70.9,70.0,30.11,SSW,198,0.0,0.0,97,0.00,,,0.00,meteobridge,2013-09-10 11:55:00,
2013-09-10 08:00:00,70.9,70.0,30.11,SSW,198,0.0,0.0,97,0.00,,,0.00,meteobridge,2013-09-10 12:00:00,
2013-09-10 08:05:00,71.2,70.3,30.11,SSW,198,0.0,0.0,97,0.00,,,0.00,meteobridge,2013-09-10 12:05:00,
2013-09-10 08:10:00,71.4,70.2,30.11,SSW,198,0.0,2.0,96,0.00,,,0.00,meteobridge,2013-09-10 12:10:00,
2013-09-10 08:15:00,72.0,70.7,30.12,SSW,198,0.0,0.0,96,0.00,,,0.00,meteobridge,2013-09-10 12:15:00,
2013-09-10 08:25:00,72.7,70.9,30.12,South,191,2.0,6.9,94,0.00,,,0.00,meteobridge,2013-09-10 12:25:00,
2013-09-10 08:31:00,73.2,70.7,30.12,SW,216,0.0,0.0,92,0.00,,,0.00,meteobridge,2013-09-10 12:31:00,
2013-09-10 08:36:00,73.9,70.5,30.12,South,181,0.0,2.9,89,0.00,,,0.00,meteobridge,2013-09-10 12:36:00,
2013-09-10 08:41:00,74.1,70.3,30.12,South,172,0.0,4.9,88,0.00,,,0.00,meteobridge,2013-09-10 12:41:00,
2013-09-10 08:46:00,74.5,70.3,30.12,SW,232,0.9,6.0,87,0.00,,,0.00,meteobridge,2013-09-10 12:46:00,
2013-09-10 08:51:00,74.7,70.2,30.12,SW,226,0.0,0.0,86,0.00,,,0.00,meteobridge,2013-09-10 12:51:00,
2013-09-10 08:56:00,75.0,70.2,30.12,West,261,0.0,0.9,85,0.00,,,0.00,meteobridge,2013-09-10 12:56:00,
2013-09-10 09:01:00,75.6,70.3,30.12,WSW,250,4.0,6.9,84,0.00,,,0.00,meteobridge,2013-09-10 13:01:00,
2013-09-10 09:06:00,75.9,69.6,30.12,South,188,0.0,6.0,81,0.00,,,0.00,meteobridge,2013-09-10 13:06:00,
2013-09-10 09:11:00,76.5,69.8,30.12,South,184,2.0,6.0,80,0.00,,,0.00,meteobridge,2013-09-10 13:11:00,
2013-09-10 09:16:00,76.5,69.8,30.12,West,267,0.9,4.9,80,0.00,,,0.00,meteobridge,2013-09-10 13:16:00,
2013-09-10 09:21:00,76.5,69.8,30.12,SSE,164,0.9,4.9,80,0.00,,,0.00,meteobridge,2013-09-10 13:21:00,
2013-09-10 09:26:00,76.5,69.8,30.12,SSE,165,2.0,2.9,80,0.00,,,0.00,meteobridge,2013-09-10 13:26:00,
2013-09-10 09:31:00,76.6,69.6,30.13,SSE,165,0.0,2.9,79,0.00,,,0.00,meteobridge,2013-09-10 13:31:00,
2013-09-10 09:37:00,77.2,70.2,30.13,SSE,165,0.0,0.0,79,0.00,,,0.00,meteobridge,2013-09-10 13:37:00,
2013-09-10 09:42:00,77.9,70.5,30.13,SSE,164,0.0,2.0,78,0.00,,,0.00,meteobridge,2013-09-10 13:42:00,
2013-09-10 09:47:00,78.3,70.0,30.13,South,176,2.0,2.9,76,0.00,,,0.00,meteobridge,2013-09-10 13:47:00,
2013-09-10 09:53:00,78.3,70.0,30.13,SW,229,0.9,4.0,76,0.00,,,0.00,meteobridge,2013-09-10 13:53:00,
2013-09-10 09:58:00,78.3,70.0,30.13,SSW,205,0.0,0.0,76,0.00,,,0.00,meteobridge,2013-09-10 13:58:00,
2013-09-10 10:03:00,78.4,70.2,30.14,SSW,212,0.0,0.9,76,0.00,,,0.00,meteobridge,2013-09-10 14:03:00,
2013-09-10 10:08:00,78.6,70.3,30.14,SSW,212,0.0,2.0,76,0.00,,,0.00,meteobridge,2013-09-10 14:08:00,
2013-09-10 10:13:00,78.6,70.3,30.14,SSW,206,0.9,4.9,76,0.00,,,0.00,meteobridge,2013-09-10 14:13:00,
2013-09-10 10:18:00,78.8,70.5,30.14,SSW,206,0.0,0.9,76,0.00,,,0.00,meteobridge,2013-09-10 14:18:00,
2013-09-10 10:23:00,79.0,70.7,30.14,SSW,206,2.9,2.9,76,0.00,,,0.00,meteobridge,2013-09-10 14:23:00,
2013-09-10 10:28:00,79.3,70.7,30.14,SW,234,0.9,2.9,75,0.00,,,0.00,meteobridge,2013-09-10 14:28:00,
2013-09-10 10:33:00,79.9,70.9,30.14,SW,236,2.0,2.0,74,0.00,,,0.00,meteobridge,2013-09-10 14:33:00,
2013-09-10 10:38:00,80.4,70.5,30.14,SSE,157,0.9,4.9,72,0.00,,,0.00,meteobridge,2013-09-10 14:38:00,
2013-09-10 10:43:00,81.1,71.2,30.14,SSE,152,4.9,6.0,72,0.00,,,0.00,meteobridge,2013-09-10 14:43:00,
2013-09-10 10:48:00,81.1,70.3,30.14,West,277,2.0,4.9,70,0.00,,,0.00,meteobridge,2013-09-10 14:48:00,
2013-09-10 10:53:00,81.1,70.0,30.14,SSW,200,4.0,6.0,69,0.00,,,0.00,meteobridge,2013-09-10 14:53:00,
2013-09-10 10:58:00,81.3,70.2,30.14,South,188,0.9,4.9,69,0.00,,,0.00,meteobridge,2013-09-10 14:58:00,
2013-09-10 11:03:00,82.2,71.4,30.14,WSW,241,2.0,6.0,70,0.00,,,0.00,meteobridge,2013-09-10 15:03:00,
2013-09-10 11:08:00,82.6,70.5,30.14,WSW,258,4.0,8.1,67,0.00,,,0.00,meteobridge,2013-09-10 15:08:00,
2013-09-10 11:14:00,82.8,71.1,30.14,West,278,2.9,6.0,68,0.00,,,0.00,meteobridge,2013-09-10 15:14:00,
2013-09-10 11:19:00,83.1,71.4,30.14,SW,229,2.0,6.0,68,0.00,,,0.00,meteobridge,2013-09-10 15:19:00,
2013-09-10 11:24:00,83.1,71.1,30.14,WSW,250,2.0,6.9,67,0.00,,,0.00,meteobridge,2013-09-10 15:24:00,
2013-09-10 11:29:00,83.1,71.1,30.14,SSW,196,4.0,6.0,67,0.00,,,0.00,meteobridge,2013-09-10 15:29:00,
2013-09-10 11:34:00,83.5,71.4,30.14,SSW,196,0.0,2.9,67,0.00,,,0.00,meteobridge,2013-09-10 15:34:00,
2013-09-10 11:39:00,84.0,71.4,30.14,South,181,0.9,6.0,66,0.00,,,0.00,meteobridge,2013-09-10 15:39:00,
2013-09-10 11:44:00,83.7,71.1,30.14,South,184,0.0,6.0,66,0.00,,,0.00,meteobridge,2013-09-10 15:44:00,
2013-09-10 11:49:00,83.8,71.2,30.13,WSW,256,2.0,10.1,66,0.00,,,0.00,meteobridge,2013-09-10 15:49:00,
2013-09-10 11:54:00,84.0,71.1,30.13,SSW,192,8.1,8.1,65,0.00,,,0.00,meteobridge,2013-09-10 15:54:00,
2013-09-10 12:00:00,84.4,72.1,30.13,SSW,206,0.9,6.9,67,0.00,,,0.00,meteobridge,2013-09-10 16:00:00,
2013-09-10 12:05:00,84.7,71.6,30.13,South,179,0.9,6.9,65,0.00,,,0.00,meteobridge,2013-09-10 16:05:00,
2013-09-10 12:10:00,84.7,71.6,30.13,SW,219,2.9,4.9,65,0.00,,,0.00,meteobridge,2013-09-10 16:10:00,
2013-09-10 12:15:00,85.1,71.1,30.12,SW,233,4.9,6.0,63,0.00,,,0.00,meteobridge,2013-09-10 16:15:00,
2013-09-10 12:20:00,84.9,71.8,30.12,WSW,257,2.9,8.1,65,0.00,,,0.00,meteobridge,2013-09-10 16:20:00,
2013-09-10 12:25:00,85.3,72.1,30.12,SSW,195,4.0,4.0,65,0.00,,,0.00,meteobridge,2013-09-10 16:25:00,
2013-09-10 12:30:00,85.5,72.0,30.12,SW,220,2.9,6.0,64,0.00,,,0.00,meteobridge,2013-09-10 16:30:00,
2013-09-10 12:35:00,85.6,71.6,30.12,West,268,2.0,6.0,63,0.00,,,0.00,meteobridge,2013-09-10 16:35:00,
2013-09-10 12:40:00,86.4,72.7,30.12,South,191,2.0,2.9,64,0.00,,,0.00,meteobridge,2013-09-10 16:40:00,
2013-09-10 12:45:00,86.4,72.3,30.12,SW,219,0.0,2.9,63,0.00,,,0.00,meteobridge,2013-09-10 16:45:00,
2013-09-10 12:50:00,86.5,72.0,30.12,WSW,239,0.9,4.9,62,0.00,,,0.00,meteobridge,2013-09-10 16:50:00,
2013-09-10 12:55:00,86.4,72.7,30.12,South,169,6.0,6.0,64,0.00,,,0.00,meteobridge,2013-09-10 16:55:00,
2013-09-10 13:00:00,86.4,72.3,30.12,South,184,0.0,6.0,63,0.00,,,0.00,meteobridge,2013-09-10 17:00:00,
2013-09-10 13:05:00,87.1,72.0,30.12,South,185,4.9,8.1,61,0.00,,,0.00,meteobridge,2013-09-10 17:05:00,
2013-09-10 13:10:00,87.1,72.5,30.12,WSW,251,0.9,4.9,62,0.00,,,0.00,meteobridge,2013-09-10 17:10:00,
2013-09-10 13:15:00,87.6,72.5,30.11,WNW,288,6.0,6.0,61,0.00,,,0.00,meteobridge,2013-09-10 17:15:00,
2013-09-10 13:20:00,87.6,73.0,30.11,SE,143,0.0,4.0,62,0.00,,,0.00,meteobridge,2013-09-10 17:20:00,
2013-09-10 13:25:00,88.0,72.9,30.11,SSW,195,6.0,6.0,61,0.00,,,0.00,meteobridge,2013-09-10 17:25:00,
2013-09-10 13:30:00,87.8,71.6,30.11,South,185,0.9,8.1,59,0.00,,,0.00,meteobridge,2013-09-10 17:30:00,
2013-09-10 13:35:00,87.4,71.8,30.11,South,189,2.0,6.0,60,0.00,,,0.00,meteobridge,2013-09-10 17:35:00,
2013-09-10 13:41:00,87.6,72.5,30.11,SW,226,0.9,6.0,61,0.00,,,0.00,meteobridge,2013-09-10 17:41:00,
2013-09-10 13:46:00,88.3,72.7,30.11,WSW,253,2.0,6.9,60,0.00,,,0.00,meteobridge,2013-09-10 17:46:00,
2013-09-10 13:51:00,88.9,73.2,30.11,West,274,4.9,6.9,60,0.00,,,0.00,meteobridge,2013-09-10 17:51:00,
2013-09-10 13:56:00,89.2,73.0,30.11,SSW,205,2.9,6.9,59,0.00,,,0.00,meteobridge,2013-09-10 17:56:00,
2013-09-10 14:01:00,89.4,72.7,30.11,WSW,253,0.0,0.9,58,0.00,,,0.00,meteobridge,2013-09-10 18:01:00,
2013-09-10 14:06:00,90.0,73.2,30.11,SSE,151,0.0,0.9,58,0.00,,,0.00,meteobridge,2013-09-10 18:06:00,
2013-09-10 14:11:00,89.8,73.6,30.11,South,181,6.0,6.0,59,0.00,,,0.00,meteobridge,2013-09-10 18:11:00,
2013-09-10 14:16:00,89.2,72.5,30.10,South,172,6.0,6.0,58,0.00,,,0.00,meteobridge,2013-09-10 18:16:00,
2013-09-10 14:21:00,89.2,72.0,30.10,WSW,254,2.0,6.0,57,0.00,,,0.00,meteobridge,2013-09-10 18:21:00,
2013-09-10 14:26:00,89.1,71.8,30.10,SE,140,6.0,8.1,57,0.00,,,0.00,meteobridge,2013-09-10 18:26:00,
2013-09-10 14:32:00,89.1,72.3,30.10,SW,222,0.9,0.9,58,0.00,,,0.00,meteobridge,2013-09-10 18:32:00,
2013-09-10 14:42:00,90.3,71.4,30.10,SW,234,0.0,6.0,54,0.00,,,0.00,meteobridge,2013-09-10 18:42:00,
2013-09-10 14:47:00,90.0,72.1,30.10,SE,145,0.9,6.9,56,0.00,,,0.00,meteobridge,2013-09-10 18:47:00,
2013-09-10 14:52:00,89.4,72.1,30.10,SW,220,6.0,8.1,57,0.00,,,0.00,meteobridge,2013-09-10 18:52:00,
2013-09-10 14:57:00,90.0,72.7,30.10,SSW,192,0.0,6.9,57,0.00,,,0.00,meteobridge,2013-09-10 18:57:00,
2013-09-10 15:02:00,90.0,72.1,30.09,West,275,0.9,6.9,56,0.00,,,0.00,meteobridge,2013-09-10 19:02:00,
2013-09-10 15:07:00,90.0,72.1,30.09,SSE,167,6.0,6.9,56,0.00,,,0.00,meteobridge,2013-09-10 19:07:00,
2013-09-10 15:12:00,89.4,72.1,30.09,South,182,4.0,4.9,57,0.00,,,0.00,meteobridge,2013-09-10 19:12:00,
2013-09-10 15:17:00,89.2,72.0,30.09,SE,130,0.9,2.9,57,0.00,,,0.00,meteobridge,2013-09-10 19:17:00,
2013-09-10 15:22:00,89.4,72.7,30.09,SE,140,2.0,6.0,58,0.00,,,0.00,meteobridge,2013-09-10 19:22:00,
2013-09-10 15:28:00,90.0,72.1,30.09,ESE,123,0.0,0.9,56,0.00,,,0.00,meteobridge,2013-09-10 19:28:00,
2013-09-10 15:33:00,90.7,72.3,30.08,SSW,203,0.0,2.0,55,0.00,,,0.00,meteobridge,2013-09-10 19:33:00,
2013-09-10 15:38:00,90.5,71.6,30.08,West,265,0.0,6.0,54,0.00,,,0.00,meteobridge,2013-09-10 19:38:00,
2013-09-10 15:43:00,90.5,72.1,30.08,ESE,121,2.9,4.0,55,0.00,,,0.00,meteobridge,2013-09-10 19:43:00,
2013-09-10 15:48:00,90.1,72.9,30.08,SW,223,0.9,6.9,57,0.00,,,0.00,meteobridge,2013-09-10 19:48:00,
2013-09-10 15:53:00,90.1,70.7,30.08,SSE,150,0.0,6.9,53,0.00,,,0.00,meteobridge,2013-09-10 19:53:00,
2013-09-10 15:58:00,90.3,71.4,30.08,SW,226,0.9,4.0,54,0.00,,,0.00,meteobridge,2013-09-10 19:58:00,
2013-09-10 16:03:00,90.3,72.0,30.07,SW,222,0.9,2.9,55,0.00,,,0.00,meteobridge,2013-09-10 20:03:00,
2013-09-10 16:08:00,90.3,71.4,30.07,SSW,206,0.0,2.9,54,0.00,,,0.00,meteobridge,2013-09-10 20:08:00,
2013-09-10 16:13:00,89.8,72.5,30.07,SSW,200,0.0,6.0,57,0.00,,,0.00,meteobridge,2013-09-10 20:13:00,
2013-09-10 16:18:00,89.2,70.9,30.07,SSE,168,0.0,4.9,55,0.00,,,0.00,meteobridge,2013-09-10 20:18:00,
2013-09-10 16:23:00,89.4,71.6,30.07,SSE,167,0.0,2.9,56,0.00,,,0.00,meteobridge,2013-09-10 20:23:00,
2013-09-10 16:28:00,89.8,72.0,30.07,SW,216,0.0,2.9,56,0.00,,,0.00,meteobridge,2013-09-10 20:28:00,
2013-09-10 16:33:00,90.1,71.2,30.06,WSW,257,2.0,2.9,54,0.00,,,0.00,meteobridge,2013-09-10 20:33:00,
2013-09-10 16:38:00,89.8,72.0,30.06,South,178,4.9,6.0,56,0.00,,,0.00,meteobridge,2013-09-10 20:38:00,
2013-09-10 16:43:00,89.1,71.8,30.06,South,178,0.0,4.9,57,0.00,,,0.00,meteobridge,2013-09-10 20:43:00,
2013-09-10 16:48:00,89.2,71.4,30.06,WSW,240,0.0,6.9,56,0.00,,,0.00,meteobridge,2013-09-10 20:48:00,
2013-09-10 16:54:00,89.2,71.4,30.06,SSW,198,0.9,4.0,56,0.00,,,0.00,meteobridge,2013-09-10 20:54:00,
2013-09-10 16:59:00,89.4,71.6,30.06,West,267,2.0,4.9,56,0.00,,,0.00,meteobridge,2013-09-10 20:59:00,
2013-09-10 17:04:00,89.8,72.0,30.05,SE,143,0.9,4.0,56,0.00,,,0.00,meteobridge,2013-09-10 21:04:00,
2013-09-10 17:09:00,89.4,71.6,30.05,SW,236,4.0,6.0,56,0.00,,,0.00,meteobridge,2013-09-10 21:09:00,
2013-09-10 17:14:00,89.8,71.4,30.05,WSW,256,2.0,8.1,55,0.00,,,0.00,meteobridge,2013-09-10 21:14:00,
2013-09-10 17:19:00,90.0,71.1,30.05,SSE,155,0.0,4.0,54,0.00,,,0.00,meteobridge,2013-09-10 21:19:00,
2013-09-10 17:24:00,90.0,71.6,30.05,SSW,203,0.0,4.9,55,0.00,,,0.00,meteobridge,2013-09-10 21:24:00,
2013-09-10 17:29:00,89.8,72.0,30.05,SSE,168,0.0,0.9,56,0.00,,,0.00,meteobridge,2013-09-10 21:29:00,
2013-09-10 17:34:00,89.2,70.9,30.05,SSE,158,2.0,4.9,55,0.00,,,0.00,meteobridge,2013-09-10 21:34:00,
2013-09-10 17:39:00,89.2,71.4,30.05,SE,124,2.9,6.0,56,0.00,,,0.00,meteobridge,2013-09-10 21:39:00,
2013-09-10 17:44:00,89.1,70.7,30.05,SSW,198,0.9,6.0,55,0.00,,,0.00,meteobridge,2013-09-10 21:44:00,
2013-09-10 17:49:00,88.9,71.1,30.05,SW,236,2.0,4.9,56,0.00,,,0.00,meteobridge,2013-09-10 21:49:00,
2013-09-10 17:54:00,88.5,70.9,30.05,SSW,192,0.0,4.9,56,0.00,,,0.00,meteobridge,2013-09-10 21:54:00,
2013-09-10 17:59:00,88.5,71.4,30.05,West,264,2.0,2.9,57,0.00,,,0.00,meteobridge,2013-09-10 21:59:00,
2013-09-10 18:05:00,88.5,71.4,30.05,SSW,203,0.0,0.9,57,0.00,,,0.00,meteobridge,2013-09-10 22:05:00,
2013-09-10 18:10:00,88.5,71.8,30.05,SSW,205,0.0,0.0,58,0.00,,,0.00,meteobridge,2013-09-10 22:10:00,
2013-09-10 18:15:00,88.3,71.2,30.05,SSW,198,2.0,2.9,57,0.00,,,0.00,meteobridge,2013-09-10 22:15:00,
2013-09-10 18:20:00,88.0,71.8,30.05,SSW,196,0.0,0.0,59,0.00,,,0.00,meteobridge,2013-09-10 22:20:00,
2013-09-10 18:25:00,88.0,71.4,30.05,SSW,196,0.0,2.0,58,0.00,,,0.00,meteobridge,2013-09-10 22:25:00,
2013-09-10 18:30:00,88.2,72.0,30.06,SSW,196,0.0,0.0,59,0.00,,,0.00,meteobridge,2013-09-10 22:30:00,
2013-09-10 18:35:00,88.2,72.0,30.06,SSW,196,0.9,0.9,59,0.00,,,0.00,meteobridge,2013-09-10 22:35:00,
2013-09-10 18:40:00,87.8,71.6,30.06,SSW,193,2.9,6.0,59,0.00,,,0.00,meteobridge,2013-09-10 22:40:00,
2013-09-10 18:45:00,87.4,71.8,30.06,SSW,193,0.9,4.9,60,0.00,,,0.00,meteobridge,2013-09-10 22:45:00,
2013-09-10 18:50:00,87.3,71.6,30.06,SSW,205,2.0,2.9,60,0.00,,,0.00,meteobridge,2013-09-10 22:50:00,
2013-09-10 18:56:00,87.3,72.1,30.06,SSW,205,0.0,0.0,61,0.00,,,0.00,meteobridge,2013-09-10 22:56:00,
2013-09-10 19:01:00,87.3,72.7,30.07,SSW,205,0.0,0.0,62,0.00,,,0.00,meteobridge,2013-09-10 23:01:00,
2013-09-10 19:06:00,87.3,72.1,30.07,SSW,205,0.0,0.0,61,0.00,,,0.00,meteobridge,2013-09-10 23:06:00,
2013-09-10 19:11:00,87.1,72.5,30.07,SSW,205,0.0,0.0,62,0.00,,,0.00,meteobridge,2013-09-10 23:11:00,
2013-09-10 19:16:00,86.7,72.7,30.07,SSW,205,0.0,0.0,63,0.00,,,0.00,meteobridge,2013-09-10 23:16:00,
2013-09-10 19:22:00,86.2,73.0,30.07,SSW,205,0.0,0.0,65,0.00,,,0.00,meteobridge,2013-09-10 23:22:00,
2013-09-10 19:27:00,85.6,73.4,30.07,SSW,205,0.0,0.0,67,0.00,,,0.00,meteobridge,2013-09-10 23:27:00,
2013-09-10 19:32:00,85.3,73.9,30.07,SSW,205,0.0,0.0,69,0.00,,,0.00,meteobridge,2013-09-10 23:32:00,
2013-09-10 19:37:00,84.9,74.1,30.07,SSW,205,0.0,0.0,70,0.00,,,0.00,meteobridge,2013-09-10 23:37:00,
2013-09-10 19:42:00,84.4,74.3,30.07,SSW,205,0.0,0.0,72,0.00,,,0.00,meteobridge,2013-09-10 23:42:00,
2013-09-10 19:47:00,83.8,74.3,30.07,SSW,205,0.0,0.0,73,0.00,,,0.00,meteobridge,2013-09-10 23:47:00,
2013-09-10 19:52:00,82.9,74.1,30.07,SSW,205,0.0,0.0,75,0.00,,,0.00,meteobridge,2013-09-10 23:52:00,
2013-09-10 19:57:00,82.2,74.3,30.07,SSW,205,0.0,0.0,77,0.00,,,0.00,meteobridge,2013-09-10 23:57:00,
2013-09-10 20:03:00,81.7,74.5,30.08,SSW,205,0.0,0.0,79,0.00,,,0.00,meteobridge,2013-09-11 00:03:00,
2013-09-10 20:08:00,81.1,73.9,30.08,SSW,205,0.0,0.0,79,0.00,,,0.00,meteobridge,2013-09-11 00:08:00,
2013-09-10 20:13:00,80.8,73.9,30.08,SSW,205,0.0,0.0,80,0.00,,,0.00,meteobridge,2013-09-11 00:13:00,
2013-09-10 20:18:00,80.1,73.8,30.08,SSW,205,0.0,0.9,81,0.00,,,0.00,meteobridge,2013-09-11 00:18:00,
2013-09-10 20:24:00,79.9,73.9,30.08,SSW,205,0.0,0.0,82,0.00,,,0.00,meteobridge,2013-09-11 00:24:00,
2013-09-10 20:29:00,79.3,73.8,30.08,SSW,205,0.0,0.0,83,0.00,,,0.00,meteobridge,2013-09-11 00:29:00,
2013-09-10 20:34:00,79.0,73.8,30.09,SSW,205,0.0,0.0,84,0.00,,,0.00,meteobridge,2013-09-11 00:34:00,
2013-09-10 20:39:00,78.6,73.4,30.09,SSW,205,0.0,0.0,84,0.00,,,0.00,meteobridge,2013-09-11 00:39:00,
2013-09-10 20:44:00,78.3,73.4,30.09,SSW,205,0.0,0.0,85,0.00,,,0.00,meteobridge,2013-09-11 00:44:00,
2013-09-10 20:49:00,78.1,73.6,30.09,SSW,205,0.0,0.0,86,0.00,,,0.00,meteobridge,2013-09-11 00:49:00,
2013-09-10 20:54:00,77.9,73.4,30.09,SSW,205,0.0,0.0,86,0.00,,,0.00,meteobridge,2013-09-11 00:54:00,
2013-09-10 21:00:00,77.7,73.6,30.10,SSW,205,0.0,0.0,87,0.00,,,0.00,meteobridge,2013-09-11 01:00:00,
2013-09-10 21:05:00,77.4,73.2,30.10,SSW,205,0.0,0.0,87,0.00,,,0.00,meteobridge,2013-09-11 01:05:00,
2013-09-10 21:10:00,77.4,73.2,30.10,SSW,205,0.0,0.0,87,0.00,,,0.00,meteobridge,2013-09-11 01:10:00,
2013-09-10 21:15:00,77.2,73.4,30.10,SSW,205,0.0,0.0,88,0.00,,,0.00,meteobridge,2013-09-11 01:15:00,
2013-09-10 21:21:00,76.8,73.0,30.10,SSW,205,0.0,0.0,88,0.00,,,0.00,meteobridge,2013-09-11 01:21:00,
2013-09-10 21:26:00,76.6,73.2,30.10,SSW,205,0.0,0.0,89,0.00,,,0.00,meteobridge,2013-09-11 01:26:00,
2013-09-10 21:31:00,76.6,73.2,30.10,SSW,205,0.0,0.0,89,0.00,,,0.00,meteobridge,2013-09-11 01:31:00,
2013-09-10 21:36:00,76.5,73.0,30.10,SSW,205,0.0,0.0,89,0.00,,,0.00,meteobridge,2013-09-11 01:36:00,
2013-09-10 21:41:00,76.3,73.0,30.10,SSW,205,0.0,0.0,90,0.00,,,0.00,meteobridge,2013-09-11 01:41:00,
2013-09-10 21:46:00,76.3,73.0,30.10,SSW,205,0.0,0.0,90,0.00,,,0.00,meteobridge,2013-09-11 01:46:00,
2013-09-10 21:52:00,76.1,72.9,30.10,SSW,205,0.0,0.0,90,0.00,,,0.00,meteobridge,2013-09-11 01:52:00,
2013-09-10 21:57:00,75.9,72.9,30.10,SSW,205,0.0,0.9,90,0.00,,,0.00,meteobridge,2013-09-11 01:57:00,
2013-09-10 22:02:00,75.7,72.9,30.10,SSW,205,0.0,0.0,91,0.00,,,0.00,meteobridge,2013-09-11 02:02:00,
2013-09-10 22:07:00,75.7,72.9,30.10,SSW,205,0.0,0.0,91,0.00,,,0.00,meteobridge,2013-09-11 02:07:00,
2013-09-10 22:12:00,75.6,72.7,30.10,SSW,205,0.0,0.0,91,0.00,,,0.00,meteobridge,2013-09-11 02:12:00,
2013-09-10 22:17:00,75.6,72.7,30.10,SSW,205,0.0,0.0,91,0.00,,,0.00,meteobridge,2013-09-11 02:17:00,
2013-09-10 22:23:00,75.6,72.7,30.10,SSW,205,0.0,0.0,91,0.00,,,0.00,meteobridge,2013-09-11 02:23:00,
2013-09-10 22:28:00,75.4,72.5,30.10,SSW,205,0.0,0.0,91,0.00,,,0.00,meteobridge,2013-09-11 02:28:00,
2013-09-10 22:33:00,75.4,72.5,30.10,SSW,205,0.0,0.0,91,0.00,,,0.00,meteobridge,2013-09-11 02:33:00,
2013-09-10 22:38:00,75.4,72.5,30.10,SSW,205,0.0,0.0,91,0.00,,,0.00,meteobridge,2013-09-11 02:38:00,
2013-09-10 22:43:00,75.0,72.1,30.10,SSW,205,0.0,0.0,91,0.00,,,0.00,meteobridge,2013-09-11 02:43:00,
2013-09-10 22:48:00,75.0,72.1,30.10,SSW,205,0.0,0.0,91,0.00,,,0.00,meteobridge,2013-09-11 02:48:00,
2013-09-10 22:54:00,74.8,72.0,30.10,SSW,205,0.0,0.0,91,0.00,,,0.00,meteobridge,2013-09-11 02:54:00,
2013-09-10 22:59:00,74.8,72.3,30.10,SSW,205,0.0,0.0,92,0.00,,,0.00,meteobridge,2013-09-11 02:59:00,
2013-09-10 23:04:00,74.7,72.1,30.11,SSW,205,0.0,0.0,92,0.00,,,0.00,meteobridge,2013-09-11 03:04:00,
2013-09-10 23:09:00,74.7,72.1,30.11,SSW,205,0.0,0.0,92,0.00,,,0.00,meteobridge,2013-09-11 03:09:00,
2013-09-10 23:14:00,74.7,72.1,30.11,SSW,205,0.0,0.0,92,0.00,,,0.00,meteobridge,2013-09-11 03:14:00,
2013-09-10 23:20:00,74.7,72.1,30.11,SSW,205,0.0,0.0,92,0.00,,,0.00,meteobridge,2013-09-11 03:20:00,
2013-09-10 23:25:00,74.7,72.1,30.11,SSW,205,0.0,0.0,92,0.00,,,0.00,meteobridge,2013-09-11 03:25:00,
2013-09-10 23:30:00,74.7,72.1,30.11,SSW,205,0.0,0.0,92,0.00,,,0.00,meteobridge,2013-09-11 03:30:00,
2013-09-10 23:35:00,74.7,72.5,30.11,SSW,205,0.0,0.0,93,0.00,,,0.00,meteobridge,2013-09-11 03:35:00,
2013-09-10 23:40:00,74.7,72.5,30.11,SSW,205,0.0,0.0,93,0.00,,,0.00,meteobridge,2013-09-11 03:40:00,
2013-09-10 23:45:00,74.5,72.3,30.11,SSW,205,0.0,0.0,93,0.00,,,0.00,meteobridge,2013-09-11 03:45:00,
2013-09-10 23:50:00,74.5,72.3,30.11,SSW,205,0.0,0.0,93,0.00,,,0.00,meteobridge,2013-09-11 03:50:00,
2013-09-10 23:55:00,74.1,72.0,30.11,SSW,205,0.0,0.0,93,0.00,,,0.00,meteobridge,2013-09-11 03:55:00,